South Hills Village, Pennsylvania
Current Conditions -  °F | °C
As of 8:53 AM on Saturday 20 Dec 2014 (Local Time) from KAGC Reporting Station
Overcast Overcast  
Wind Chill: 26°   Ceiling: 2400
Heat Index: 26°   Visibility: 10mi
Dew Point: 16°   Wind: 0mph
Humidity: 66%   Direction: NA
Pressure: 30.25"   Gusts: NA
Location:  40.3301°N, 80.0824°W
Report Text: KAGC 201353Z AUTO 00000KT 10SM OVC024 M03/M09 A3025 RMK AO2 SLP265 T10331089 TSNO
Loading
Personal Weather Stations






























Interactive Weather Map New forecast layout! Learn more

10-Day Weather Forecast

Advertisements
Track Severe Weather on mobile